createdAt,value
2018-10-03T00:00:07.818Z,6.50
2018-10-03T00:02:10.055Z,5.60
2018-10-03T00:04:12.229Z,4.50
2018-10-03T00:06:14.492Z,5.43
2018-10-03T00:08:16.885Z,5.17
2018-10-03T00:10:19.058Z,5.50
2018-10-03T00:12:21.232Z,6.03
2018-10-03T00:14:23.504Z,5.33
2018-10-03T00:16:25.756Z,5.40
2018-10-03T00:18:28.024Z,6.50
2018-10-03T00:20:30.288Z,6.03
2018-10-03T00:22:32.484Z,6.50
2018-10-03T00:24:34.686Z,6.17
2018-10-03T00:26:36.881Z,4.73
2018-10-03T00:28:39.136Z,4.93
2018-10-03T00:30:41.286Z,6.13
2018-10-03T00:32:43.496Z,5.23
2018-10-03T00:34:45.703Z,5.20
2018-10-03T00:36:47.912Z,5.43
2018-10-03T00:38:50.111Z,5.80
2018-10-03T00:40:52.299Z,5.80
2018-10-03T00:42:54.582Z,6.07
2018-10-03T00:44:56.831Z,5.60
2018-10-03T00:46:59.010Z,5.90
2018-10-03T00:49:01.248Z,5.40
2018-10-03T00:51:03.547Z,4.70
2018-10-03T00:53:06.054Z,6.07
2018-10-03T00:55:08.299Z,5.03
2018-10-03T00:57:10.468Z,5.70
2018-10-03T00:59:12.685Z,5.77
2018-10-03T01:01:14.902Z,5.83
2018-10-03T01:03:17.115Z,5.13
2018-10-03T01:05:19.301Z,5.30
2018-10-03T01:07:21.483Z,5.73
2018-10-03T01:09:23.662Z,4.80
2018-10-03T01:11:25.965Z,5.97
2018-10-03T01:13:28.193Z,5.90
2018-10-03T01:15:30.392Z,6.03
2018-10-03T01:17:32.559Z,5.60
2018-10-03T01:19:34.799Z,5.63
2018-10-03T01:21:36.982Z,5.20
2018-10-03T01:23:39.201Z,4.47
2018-10-03T01:25:41.380Z,5.20
2018-10-03T01:27:43.678Z,6.70
2018-10-03T01:29:45.930Z,4.90
2018-10-03T01:31:48.283Z,5.87
2018-10-03T01:33:50.554Z,5.10
2018-10-03T01:35:52.853Z,5.30
2018-10-03T01:37:55.090Z,4.17
2018-10-03T01:39:57.369Z,4.93
2018-10-03T01:41:59.624Z,6.07
2018-10-03T01:44:01.861Z,5.53
2018-10-03T01:46:04.182Z,5.33
2018-10-03T01:48:06.520Z,5.80
2018-10-03T01:50:08.692Z,4.73
2018-10-03T01:52:10.972Z,5.83
2018-10-03T01:54:13.154Z,5.00
2018-10-03T01:56:15.377Z,4.43
2018-10-03T01:58:17.559Z,5.57
2018-10-03T02:00:19.790Z,5.10
2018-10-03T02:02:21.986Z,5.33
2018-10-03T02:04:24.174Z,4.50
2018-10-03T02:06:26.459Z,4.40
2018-10-03T02:08:28.757Z,4.70
2018-10-03T02:10:31.015Z,5.10
2018-10-03T02:12:33.260Z,4.30
2018-10-03T02:14:35.493Z,5.40
2018-10-03T02:16:37.732Z,4.37
2018-10-03T02:18:40.023Z,4.23
2018-10-03T02:20:42.300Z,5.50
2018-10-03T02:22:44.575Z,4.57
2018-10-03T02:24:46.754Z,6.23
2018-10-03T02:26:48.946Z,4.27
2018-10-03T02:28:51.153Z,6.07
2018-10-03T02:30:53.332Z,4.80
2018-10-03T02:32:55.610Z,4.67
2018-10-03T02:34:57.821Z,4.63
2018-10-03T02:37:00.073Z,5.13
2018-10-03T02:39:02.316Z,5.27
2018-10-03T02:41:04.526Z,5.50
2018-10-03T02:43:06.743Z,4.50
2018-10-03T02:45:08.983Z,4.70
2018-10-03T02:47:11.184Z,5.20
2018-10-03T02:49:13.441Z,6.07
2018-10-03T02:51:15.699Z,6.03
2018-10-03T02:53:17.841Z,4.97
2018-10-03T02:55:20.019Z,5.23
2018-10-03T02:57:22.202Z,4.90
2018-10-03T02:59:24.430Z,5.53
2018-10-03T03:01:26.704Z,5.13
2018-10-03T03:03:28.831Z,4.80
2018-10-03T03:05:31.090Z,5.07
2018-10-03T03:07:33.375Z,4.90
2018-10-03T03:09:35.663Z,5.27
2018-10-03T03:11:37.818Z,4.63
2018-10-03T03:13:40.022Z,5.57
2018-10-03T03:15:42.275Z,4.40
2018-10-03T03:17:44.499Z,4.80
2018-10-03T03:19:46.743Z,4.73
2018-10-03T03:21:48.989Z,5.27
2018-10-03T03:23:51.214Z,4.10
2018-10-03T03:25:53.468Z,5.00
2018-10-03T03:27:55.675Z,5.83
2018-10-03T03:29:57.862Z,5.30
2018-10-03T03:32:00.169Z,4.50
2018-10-03T03:34:02.367Z,5.87
2018-10-03T03:36:04.663Z,4.13
2018-10-03T03:38:06.910Z,5.27
2018-10-03T03:40:09.171Z,5.53
2018-10-03T03:42:11.386Z,4.63
2018-10-03T03:44:13.603Z,3.77
2018-10-03T03:46:15.867Z,5.10
2018-10-03T03:48:18.253Z,5.37
2018-10-03T03:50:20.500Z,5.20
2018-10-03T03:52:22.788Z,4.47
2018-10-03T03:54:25.003Z,5.13
2018-10-03T03:56:27.259Z,5.10
2018-10-03T03:58:29.578Z,4.80
2018-10-03T04:00:31.775Z,5.07
2018-10-03T04:02:34.072Z,5.03
2018-10-03T04:04:36.312Z,5.40
2018-10-03T04:06:38.548Z,5.83
2018-10-03T04:08:40.790Z,5.60
2018-10-03T04:10:43.019Z,5.50
2018-10-03T04:12:45.208Z,5.53
2018-10-03T04:14:47.500Z,5.80
2018-10-03T04:16:49.742Z,5.43
2018-10-03T04:18:51.982Z,4.90
2018-10-03T04:20:54.227Z,4.73
2018-10-03T04:22:56.434Z,5.37
2018-10-03T04:24:58.696Z,6.13
2018-10-03T04:27:00.939Z,4.67
2018-10-03T04:29:03.816Z,4.63
2018-10-03T04:31:05.982Z,4.00
2018-10-03T04:33:08.199Z,4.33
2018-10-03T04:35:10.435Z,4.67
2018-10-03T04:37:12.715Z,5.03
2018-10-03T04:39:14.879Z,5.20
2018-10-03T04:41:17.093Z,4.93
2018-10-03T04:43:19.345Z,5.30
2018-10-03T04:45:21.571Z,4.87
2018-10-03T04:47:23.791Z,5.70
2018-10-03T04:49:26.016Z,4.83
2018-10-03T04:51:28.234Z,5.13
2018-10-03T04:53:30.459Z,5.00
2018-10-03T04:55:32.766Z,4.73
2018-10-03T04:57:35.020Z,5.30
2018-10-03T04:59:37.332Z,5.20
2018-10-03T05:01:39.691Z,4.70
2018-10-03T05:03:41.981Z,4.93
2018-10-03T05:05:44.231Z,6.43
2018-10-03T05:07:46.470Z,4.70
2018-10-03T05:09:48.704Z,4.30
2018-10-03T05:11:50.911Z,4.70
2018-10-03T05:13:53.171Z,4.80
2018-10-03T05:15:55.418Z,4.50
2018-10-03T05:17:57.684Z,4.93
2018-10-03T05:19:59.850Z,5.37
2018-10-03T05:22:02.080Z,6.73
2018-10-03T05:24:04.295Z,5.33
2018-10-03T05:26:06.643Z,5.30
2018-10-03T05:28:08.857Z,5.20
2018-10-03T05:30:11.073Z,5.70
2018-10-03T05:32:13.269Z,4.80
2018-10-03T05:34:15.534Z,5.30
2018-10-03T05:36:17.789Z,4.93
2018-10-03T05:38:20.049Z,5.90
2018-10-03T05:40:27.452Z,3.80
2018-10-03T05:42:29.698Z,4.93
2018-10-03T07:48:11.210Z,5.07
2018-10-03T08:06:50.063Z,4.43
2018-10-03T08:08:58.388Z,4.10
2018-10-03T08:11:07.947Z,4.50
2018-10-03T08:13:12.333Z,5.87
2018-10-03T08:15:33.246Z,4.93
2018-10-03T08:17:42.036Z,5.10
2018-10-03T08:21:57.306Z,4.90
2018-10-03T08:24:03.221Z,5.80
2018-10-03T08:26:09.417Z,5.40
2018-10-03T08:28:14.433Z,4.43
2018-10-03T08:30:17.236Z,4.30
2018-10-03T08:32:19.618Z,4.70
2018-10-03T08:34:21.889Z,4.63
2018-10-03T08:36:24.381Z,4.83
2018-10-03T08:38:28.381Z,4.57
2018-10-03T08:40:31.004Z,5.03
2018-10-03T08:42:33.339Z,4.83
2018-10-03T08:44:36.339Z,4.83
2018-10-03T08:46:38.700Z,4.20
2018-10-03T08:48:41.014Z,4.27
2018-10-03T08:50:43.222Z,4.47
2018-10-03T08:52:45.572Z,4.77
2018-10-03T08:54:49.332Z,4.57
2018-10-03T08:56:51.739Z,4.90
2018-10-03T08:59:13.396Z,5.43
2018-10-03T09:01:16.060Z,4.27
2018-10-03T09:03:19.720Z,4.20
2018-10-03T09:05:21.981Z,5.63
2018-10-03T09:07:24.376Z,4.27
2018-10-03T09:09:27.055Z,4.40
2018-10-03T09:11:29.566Z,5.50
2018-10-03T09:13:33.077Z,4.77
2018-10-03T09:15:35.729Z,4.70
2018-10-03T09:17:38.346Z,5.40
2018-10-03T09:19:42.680Z,4.07
2018-10-03T09:21:45.074Z,5.17
2018-10-03T09:23:47.996Z,4.90
2018-10-03T09:25:50.600Z,4.03
2018-10-03T09:27:55.733Z,4.33
2018-10-03T09:30:17.225Z,5.00
2018-10-03T09:32:24.702Z,5.63
2018-10-03T09:34:29.880Z,5.17
2018-10-03T09:36:33.355Z,4.20
2018-10-03T09:38:36.100Z,4.60
2018-10-03T09:40:42.070Z,5.00
2018-10-03T09:42:46.130Z,4.57
2018-10-03T09:44:48.943Z,4.50
2018-10-03T09:46:58.723Z,4.80
2018-10-03T09:49:06.462Z,4.30
2018-10-03T09:51:11.552Z,4.83
2018-10-03T09:53:14.531Z,3.43
2018-10-03T09:57:47.515Z,4.53
2018-10-03T09:59:59.271Z,4.73
2018-10-03T10:02:02.766Z,3.90
2018-10-03T10:04:06.411Z,4.80
2018-10-03T10:06:08.844Z,4.47
2018-10-03T10:08:11.422Z,4.37
2018-10-03T10:10:17.775Z,3.97
2018-10-03T10:12:22.451Z,3.93
2018-10-03T11:54:00.033Z,3.57
2018-10-03T11:56:02.360Z,3.67
2018-10-03T11:58:04.850Z,2.87
2018-10-03T12:00:07.098Z,4.03
2018-10-03T12:02:09.454Z,3.40
2018-10-03T12:04:24.485Z,3.70
2018-10-03T12:06:45.419Z,3.30
2018-10-03T12:08:47.907Z,4.33
2018-10-03T12:10:50.380Z,4.00
2018-10-03T12:12:52.998Z,3.60
2018-10-03T12:14:55.492Z,4.10
2018-10-03T12:16:58.134Z,3.73
2018-10-03T12:19:01.640Z,3.30
2018-10-03T12:21:05.428Z,3.37
2018-10-03T12:23:07.908Z,3.70
2018-10-03T12:25:10.291Z,3.40
2018-10-03T12:27:12.452Z,3.33
2018-10-03T12:29:14.700Z,4.00
2018-10-03T12:31:17.088Z,3.43
2018-10-03T12:33:19.711Z,3.80
2018-10-03T12:35:27.808Z,3.47
2018-10-03T12:37:30.017Z,4.83
2018-10-03T12:39:32.515Z,3.60
2018-10-03T12:41:34.896Z,3.40
2018-10-03T12:43:37.399Z,3.77
2018-10-03T12:45:39.723Z,3.30
2018-10-03T12:47:42.071Z,3.87
2018-10-03T12:49:44.394Z,4.30
2018-10-03T12:51:46.820Z,3.97
2018-10-03T12:53:56.324Z,3.90
2018-10-03T12:55:58.711Z,3.53
2018-10-03T12:58:01.063Z,3.90
2018-10-03T13:00:03.582Z,3.70
2018-10-03T13:02:06.336Z,3.60
2018-10-03T13:04:08.881Z,4.03
2018-10-03T13:06:11.180Z,4.20
2018-10-03T13:08:13.943Z,4.40
2018-10-03T13:10:16.372Z,3.73
2018-10-03T13:12:18.786Z,3.60
2018-10-03T13:14:21.171Z,3.60
2018-10-03T13:16:23.662Z,3.83
2018-10-03T13:18:26.302Z,4.00
2018-10-03T13:20:47.728Z,3.60
2018-10-03T13:22:50.176Z,4.07
2018-10-03T13:24:52.588Z,3.40
2018-10-03T13:26:54.812Z,3.67
2018-10-03T13:28:57.178Z,3.60
2018-10-03T13:30:59.522Z,3.10
2018-10-03T13:33:01.823Z,4.00
2018-10-03T13:35:04.502Z,3.77
2018-10-03T13:37:06.952Z,2.90
2018-10-03T13:39:09.843Z,3.60
2018-10-03T13:41:12.186Z,2.87
2018-10-03T13:43:14.403Z,2.60
2018-10-03T13:45:16.700Z,2.93
2018-10-03T13:47:19.096Z,2.97
2018-10-03T13:49:21.379Z,3.13
2018-10-03T13:51:23.882Z,2.87
2018-10-03T13:53:28.801Z,2.77
2018-10-03T13:55:31.103Z,2.80
2018-10-03T13:57:33.504Z,3.10
2018-10-03T13:59:35.988Z,2.70
2018-10-03T14:01:38.487Z,3.37
2018-10-03T14:03:40.975Z,2.50
2018-10-03T14:05:45.844Z,2.70
2018-10-03T14:07:57.007Z,2.67
2018-10-03T14:09:59.302Z,2.97
2018-10-03T14:12:04.059Z,3.00
2018-10-03T14:14:06.460Z,3.03
2018-10-03T14:16:08.759Z,2.57
2018-10-03T14:18:11.059Z,2.87
2018-10-03T14:20:13.355Z,2.70
2018-10-03T14:22:18.785Z,3.07
2018-10-03T14:24:22.900Z,3.07
2018-10-03T14:26:25.180Z,2.83
2018-10-03T14:28:28.747Z,2.90
2018-10-03T14:30:31.003Z,3.13
2018-10-03T14:32:33.369Z,3.10
2018-10-03T14:34:35.679Z,3.37
2018-10-03T14:36:38.162Z,2.87
2018-10-03T14:38:40.458Z,2.43
2018-10-03T14:40:43.398Z,2.50
2018-10-03T14:42:46.688Z,2.50
2018-10-03T14:44:49.062Z,3.00
2018-10-03T14:46:51.522Z,2.63
2018-10-03T14:48:54.080Z,2.47
2018-10-03T14:50:56.563Z,2.60
2018-10-03T14:52:58.878Z,2.50
2018-10-03T14:55:01.685Z,2.73
2018-10-03T14:57:03.815Z,2.67
2018-10-03T14:59:05.944Z,2.43
2018-10-03T15:01:08.094Z,3.60
2018-10-03T15:03:10.162Z,3.00
2018-10-03T15:05:12.291Z,2.50
2018-10-03T15:07:14.391Z,2.97
2018-10-03T15:09:16.506Z,2.97
2018-10-03T15:11:19.019Z,2.53
2018-10-03T15:13:21.235Z,2.70
2018-10-03T15:15:23.415Z,2.30
2018-10-03T15:17:25.644Z,3.10
2018-10-03T15:19:27.970Z,2.83
2018-10-03T15:21:30.238Z,2.13
2018-10-03T15:23:32.519Z,2.30
2018-10-03T15:25:34.853Z,2.23
2018-10-03T15:27:37.121Z,3.00
2018-10-03T15:29:39.307Z,3.33
2018-10-03T15:31:41.548Z,2.80
2018-10-03T15:33:43.638Z,2.53
2018-10-03T15:35:45.905Z,2.77
2018-10-03T15:37:48.205Z,2.77
2018-10-03T15:39:50.541Z,2.77
2018-10-03T15:41:52.918Z,2.83
2018-10-03T15:43:55.177Z,2.67
2018-10-03T15:45:57.586Z,2.70
2018-10-03T15:47:59.848Z,2.73
2018-10-03T15:50:02.089Z,2.40
2018-10-03T15:52:04.360Z,2.67
2018-10-03T15:54:06.583Z,2.40
2018-10-03T15:56:09.056Z,2.73
2018-10-03T15:58:11.491Z,3.47
2018-10-03T16:00:13.677Z,2.53
2018-10-03T16:02:15.929Z,3.27
2018-10-03T16:04:18.104Z,2.80
2018-10-03T16:06:20.647Z,3.30
2018-10-03T16:08:22.819Z,3.83
2018-10-03T16:10:25.100Z,3.53
2018-10-03T16:12:27.328Z,3.90
2018-10-03T16:14:29.603Z,3.30
2018-10-03T16:16:31.966Z,3.40
2018-10-03T16:18:34.186Z,3.47
2018-10-03T16:20:36.566Z,3.37
2018-10-03T16:22:38.791Z,3.60
2018-10-03T16:24:41.049Z,3.30
2018-10-03T16:26:43.300Z,3.37
2018-10-03T16:28:45.421Z,3.63
2018-10-03T16:31:01.988Z,2.90
2018-10-03T16:33:04.364Z,3.27
2018-10-03T16:35:06.786Z,3.83
2018-10-03T16:37:09.080Z,3.47
2018-10-03T16:39:12.883Z,3.17
2018-10-03T16:41:15.211Z,2.70
2018-10-03T16:43:17.488Z,3.33
2018-10-03T16:45:19.747Z,2.60
2018-10-03T16:47:22.121Z,3.30
2018-10-03T16:49:24.379Z,3.70
2018-10-03T16:51:26.707Z,3.60
2018-10-03T16:53:28.845Z,3.37
2018-10-03T16:55:31.516Z,3.03
2018-10-03T16:57:34.168Z,3.03
2018-10-03T16:59:36.478Z,3.30
2018-10-03T17:01:38.831Z,3.30
2018-10-03T17:03:47.474Z,3.67
2018-10-03T17:05:50.251Z,3.30
2018-10-03T17:07:52.914Z,3.63
2018-10-03T17:09:55.954Z,3.60
2018-10-03T17:11:58.434Z,3.37
2018-10-03T17:14:28.520Z,3.40
2018-10-03T17:16:33.148Z,3.70
2018-10-03T17:18:36.175Z,3.40
2018-10-03T17:20:38.692Z,3.67
2018-10-03T17:22:41.292Z,3.20
2018-10-03T17:24:43.832Z,3.50
2018-10-03T17:26:46.303Z,3.00
2018-10-03T17:28:48.621Z,3.13
2018-10-03T17:30:51.657Z,3.87
2018-10-03T17:32:54.130Z,3.63
2018-10-03T17:34:57.352Z,3.53
2018-10-03T17:36:59.738Z,4.00
2018-10-03T17:39:05.374Z,3.87
2018-10-03T17:41:10.758Z,4.10
2018-10-03T17:43:13.711Z,3.23
2018-10-03T17:45:16.087Z,3.70
2018-10-03T17:47:19.489Z,3.77
2018-10-03T17:49:23.711Z,3.23
2018-10-03T17:51:26.062Z,3.47
2018-10-03T17:53:29.306Z,3.50
2018-10-03T17:55:32.447Z,3.20
2018-10-03T17:57:34.717Z,3.47
2018-10-03T17:59:36.956Z,3.77
2018-10-03T18:01:44.142Z,4.17
2018-10-03T18:03:47.331Z,4.13
2018-10-03T18:05:50.664Z,3.70
2018-10-03T18:07:53.103Z,4.40
2018-10-03T18:09:55.395Z,3.53
2018-10-03T18:11:58.215Z,3.50
2018-10-03T18:14:01.465Z,3.93
2018-10-03T18:16:04.911Z,4.03
2018-10-03T18:18:17.334Z,2.87
2018-10-03T18:20:25.171Z,2.53
2018-10-03T18:22:30.755Z,2.83
2018-10-03T18:24:33.573Z,3.80
2018-10-03T18:26:51.285Z,4.23
2018-10-03T18:28:54.716Z,5.37
2018-10-03T18:30:59.248Z,3.17
2018-10-03T18:33:03.859Z,3.43
2018-10-03T18:35:08.796Z,4.10
2018-10-03T18:37:14.803Z,3.23
2018-10-03T18:39:20.562Z,2.80
2018-10-03T18:41:27.321Z,3.40
2018-10-03T18:43:31.967Z,2.80
2018-10-03T18:45:35.155Z,3.60
2018-10-03T18:47:38.030Z,3.73
2018-10-03T18:49:42.652Z,3.13
2018-10-03T18:51:47.214Z,3.40
2018-10-03T18:54:11.739Z,3.03
2018-10-03T18:56:16.485Z,3.87
2018-10-03T18:58:21.053Z,3.23
2018-10-03T19:00:36.032Z,3.23
2018-10-03T19:02:44.775Z,3.70
2018-10-03T19:04:50.159Z,3.60
2018-10-03T19:07:01.558Z,3.63
2018-10-03T19:09:07.511Z,3.03
2018-10-03T19:11:13.200Z,4.37
2018-10-03T19:13:22.909Z,3.10
2018-10-03T19:15:28.749Z,3.83
2018-10-03T19:17:48.205Z,3.13
2018-10-03T20:38:41.990Z,4.60
2018-10-03T20:40:45.015Z,4.50
2018-10-03T20:42:47.282Z,4.80
2018-10-03T20:44:49.877Z,4.23
2018-10-03T20:46:52.335Z,5.40
2018-10-03T20:48:54.595Z,3.90
2018-10-03T20:50:56.964Z,3.93
2018-10-03T20:52:59.446Z,4.93
2018-10-03T20:55:02.696Z,4.03
2018-10-03T20:57:13.629Z,4.20
2018-10-03T20:59:20.580Z,4.30
2018-10-03T21:01:23.078Z,4.93
2018-10-03T21:03:25.618Z,3.83
2018-10-03T21:05:28.010Z,3.50
2018-10-03T21:07:30.296Z,4.60
2018-10-03T21:09:33.601Z,4.37
2018-10-03T21:11:36.002Z,5.40
2018-10-03T21:13:38.263Z,4.20
2018-10-03T21:15:40.604Z,4.80
2018-10-03T21:17:43.131Z,4.57
2018-10-03T21:20:18.320Z,4.00
2018-10-03T21:22:20.723Z,4.77
2018-10-03T21:24:30.347Z,4.07
2018-10-03T21:26:36.886Z,3.50
2018-10-03T21:28:40.094Z,4.20
2018-10-03T21:30:42.350Z,4.60
2018-10-03T21:32:47.676Z,4.40
2018-10-03T21:34:50.349Z,4.17
2018-10-03T21:36:53.123Z,4.67
2018-10-03T21:38:55.737Z,4.63
2018-10-03T21:40:58.625Z,3.90
2018-10-03T21:43:01.088Z,4.10
2018-10-03T21:45:03.516Z,4.10
2018-10-03T21:47:05.845Z,4.10
2018-10-03T21:49:08.314Z,3.50
2018-10-03T21:51:10.538Z,3.80
2018-10-03T21:53:12.755Z,4.57
2018-10-03T21:55:14.954Z,4.30
2018-10-03T21:57:17.165Z,4.27
2018-10-03T21:59:19.416Z,3.73
2018-10-03T22:01:21.585Z,6.20
2018-10-03T22:03:24.425Z,4.33
2018-10-03T22:05:26.709Z,3.70
2018-10-03T22:07:29.088Z,4.23
2018-10-03T22:09:31.901Z,4.30
2018-10-03T22:11:38.063Z,3.80
2018-10-03T22:13:40.264Z,3.50
2018-10-03T22:15:43.279Z,4.10
2018-10-03T22:17:45.545Z,4.30
2018-10-03T22:19:47.718Z,3.33
2018-10-03T22:21:49.949Z,4.00
2018-10-03T22:23:52.154Z,4.67
2018-10-03T22:25:54.393Z,3.93
2018-10-03T22:27:56.625Z,4.10
2018-10-03T22:29:58.796Z,3.77
2018-10-03T22:32:00.993Z,3.70
2018-10-03T22:34:03.185Z,4.00
2018-10-03T22:36:05.334Z,3.97
2018-10-03T22:38:07.513Z,3.90
2018-10-03T22:40:09.630Z,3.40
2018-10-03T22:42:11.758Z,3.93
2018-10-03T22:44:13.943Z,3.10
2018-10-03T22:46:16.125Z,4.43
2018-10-03T22:48:18.290Z,3.50
2018-10-03T22:50:20.458Z,3.57
2018-10-03T22:52:22.754Z,3.50
2018-10-03T22:54:25.014Z,3.83
2018-10-03T22:56:27.210Z,3.20
2018-10-03T22:58:29.391Z,4.07
2018-10-03T23:00:31.578Z,4.40
2018-10-03T23:02:33.837Z,3.37
2018-10-03T23:04:36.077Z,3.80
2018-10-03T23:06:38.294Z,3.73
2018-10-03T23:08:40.469Z,3.73
2018-10-03T23:10:42.653Z,3.93
2018-10-03T23:12:44.842Z,3.80
2018-10-03T23:14:47.073Z,4.47
2018-10-03T23:16:49.327Z,3.90
2018-10-03T23:18:51.535Z,4.03
2018-10-03T23:20:53.727Z,3.40
2018-10-03T23:22:55.957Z,4.80
2018-10-03T23:24:58.213Z,3.90
2018-10-03T23:27:00.386Z,3.57
2018-10-03T23:29:02.942Z,3.47
2018-10-03T23:31:05.199Z,3.27
2018-10-03T23:33:07.474Z,3.40
2018-10-03T23:35:09.688Z,4.97
2018-10-03T23:37:11.957Z,3.30
2018-10-03T23:39:14.172Z,3.23
2018-10-03T23:41:16.342Z,4.27
2018-10-03T23:43:18.514Z,3.50
2018-10-03T23:45:20.719Z,4.00
2018-10-03T23:47:22.895Z,4.33
2018-10-03T23:49:25.104Z,3.83
2018-10-03T23:51:27.331Z,3.70
2018-10-03T23:53:29.591Z,4.13
2018-10-03T23:55:31.775Z,4.20
2018-10-03T23:57:34.038Z,4.20
2018-10-03T23:59:36.124Z,5.23
